Time,TemperatureF,DewpointF,PressureIn,WindDirection,WindDirectionDegrees,WindSpeedMPH,WindSpeedGustMPH,Humidity,HourlyPrecipIn,Conditions,Clouds,dailyrainin,SoftwareType,DateUTC
2013-08-14 00:15:00,68.5,51.7,30.02,SSE,157,3.1,-999.0,55,-99.99,,,0.00,Acu-Link.com,2013-08-14 06:15:00,
2013-08-14 00:30:00,68.0,51.7,30.03,WSW,247,1.6,-999.0,56,-99.99,,,0.00,Acu-Link.com,2013-08-14 06:30:00,
2013-08-14 00:45:00,68.7,51.4,30.03,West,270,3.1,-999.0,54,-99.99,,,0.00,Acu-Link.com,2013-08-14 06:45:00,
2013-08-14 01:00:00,69.1,50.7,30.02,West,270,2.2,-999.0,52,-99.99,,,0.00,Acu-Link.com,2013-08-14 07:00:00,
2013-08-14 01:15:00,70.7,52.2,30.03,SSE,157,1.6,-999.0,52,-99.99,,,0.00,Acu-Link.com,2013-08-14 07:15:00,
2013-08-14 01:31:00,70.7,54.7,30.02,SSE,157,3.8,-999.0,57,-99.99,,,0.00,Acu-Link.com,2013-08-14 07:31:00,
2013-08-14 01:46:00,70.9,55.8,30.02,SE,135,2.2,-999.0,59,-99.99,,,0.00,Acu-Link.com,2013-08-14 07:46:00,
2013-08-14 02:01:00,71.4,56.3,30.03,SSE,157,3.8,-999.0,59,-99.99,,,0.00,Acu-Link.com,2013-08-14 08:01:00,
2013-08-14 02:16:00,71.2,56.6,30.03,East,90,5.8,-999.0,60,-99.99,,,0.00,Acu-Link.com,2013-08-14 08:16:00,
2013-08-14 02:31:00,71.4,55.9,30.02,East,90,4.3,-999.0,58,-99.99,,,0.00,Acu-Link.com,2013-08-14 08:31:00,
2013-08-14 02:46:00,71.2,55.7,30.03,East,90,5.1,-999.0,58,-99.99,,,0.00,Acu-Link.com,2013-08-14 08:46:00,
2013-08-14 03:02:00,70.7,56.6,30.02,ESE,112,5.8,-999.0,61,-99.99,,,0.00,Acu-Link.com,2013-08-14 09:02:00,
2013-08-14 03:17:00,69.8,55.3,30.02,East,90,1.1,-999.0,60,-99.99,,,0.00,Acu-Link.com,2013-08-14 09:17:00,
2013-08-14 03:32:00,68.2,52.8,30.02,ENE,67,4.3,-999.0,58,-99.99,,,0.00,Acu-Link.com,2013-08-14 09:32:00,
2013-08-14 03:47:00,66.7,52.4,30.03,East,90,1.6,-999.0,60,-99.99,,,0.00,Acu-Link.com,2013-08-14 09:47:00,
2013-08-14 04:02:00,65.7,53.1,30.03,West,270,2.2,-999.0,64,-99.99,,,0.00,Acu-Link.com,2013-08-14 10:02:00,
2013-08-14 04:18:00,67.3,55.9,30.04,WNW,292,3.1,-999.0,67,-99.99,,,0.00,Acu-Link.com,2013-08-14 10:18:00,
2013-08-14 04:33:00,67.5,56.1,30.04,West,270,3.1,-999.0,67,-99.99,,,0.00,Acu-Link.com,2013-08-14 10:33:00,
2013-08-14 04:48:00,66.9,56.4,30.03,NNW,337,1.6,-999.0,69,-99.99,,,0.00,Acu-Link.com,2013-08-14 10:48:00,
2013-08-14 05:03:00,66.7,56.6,30.03,WNW,292,2.7,-999.0,70,-99.99,,,0.00,Acu-Link.com,2013-08-14 11:03:00,
2013-08-14 05:18:00,66.2,56.9,30.03,WNW,292,2.7,-999.0,72,-99.99,,,0.00,Acu-Link.com,2013-08-14 11:18:00,
2013-08-14 05:34:00,65.8,56.9,30.03,West,270,2.7,-999.0,73,-99.99,,,0.00,Acu-Link.com,2013-08-14 11:34:00,
2013-08-14 05:49:00,65.5,57.0,30.03,North,0,2.7,-999.0,74,-99.99,,,0.00,Acu-Link.com,2013-08-14 11:49:00,
2013-08-14 06:04:00,64.9,57.2,30.03,West,270,6.3,-999.0,76,-99.99,,,0.00,Acu-Link.com,2013-08-14 12:04:00,
2013-08-14 06:19:00,65.1,57.4,30.04,West,270,3.8,-999.0,76,-99.99,,,0.00,Acu-Link.com,2013-08-14 12:19:00,
2013-08-14 06:35:00,65.1,57.4,30.05,NNW,337,4.7,-999.0,76,-99.99,,,0.00,Acu-Link.com,2013-08-14 12:35:00,
2013-08-14 06:50:00,65.5,57.7,30.04,NW,315,1.1,-999.0,76,-99.99,,,0.00,Acu-Link.com,2013-08-14 12:50:00,
2013-08-14 07:05:00,66.7,57.8,30.05,WNW,292,4.3,-999.0,73,-99.99,,,0.00,Acu-Link.com,2013-08-14 13:05:00,
2013-08-14 07:20:00,67.3,57.5,30.07,NNW,337,3.8,-999.0,71,-99.99,,,0.00,Acu-Link.com,2013-08-14 13:20:00,
2013-08-14 07:35:00,68.9,57.9,30.07,North,0,3.8,-999.0,68,-99.99,,,0.00,Acu-Link.com,2013-08-14 13:35:00,
2013-08-14 07:51:00,71.6,58.3,30.07,West,270,3.8,-999.0,63,-99.99,,,0.00,Acu-Link.com,2013-08-14 13:51:00,
2013-08-14 08:06:00,72.7,58.4,30.08,NW,315,4.7,-999.0,61,-99.99,,,0.00,Acu-Link.com,2013-08-14 14:06:00,
2013-08-14 08:21:00,75.6,58.7,30.08,East,90,2.2,-999.0,56,-99.99,,,0.00,Acu-Link.com,2013-08-14 14:21:00,
2013-08-14 08:36:00,77.7,59.2,30.07,West,270,1.6,-999.0,53,-99.99,,,0.00,Acu-Link.com,2013-08-14 14:36:00,
2013-08-14 08:51:00,79.2,59.5,30.08,North,0,2.7,-999.0,51,-99.99,,,0.00,Acu-Link.com,2013-08-14 14:51:00,
2013-08-14 09:07:00,82.9,59.4,30.08,SW,225,0.0,-999.0,45,-99.99,,,0.00,Acu-Link.com,2013-08-14 15:07:00,
2013-08-14 09:22:00,84.6,60.2,30.08,ENE,67,1.6,-999.0,44,-99.99,,,0.00,Acu-Link.com,2013-08-14 15:22:00,
2013-08-14 09:37:00,77.9,58.3,30.08,SSE,157,1.6,-999.0,51,-99.99,,,0.00,Acu-Link.com,2013-08-14 15:37:00,
2013-08-14 10:08:00,78.4,58.2,30.09,ESE,112,1.6,-999.0,50,-99.99,,,0.00,Acu-Link.com,2013-08-14 16:08:00,
2013-08-14 10:23:00,79.0,58.2,30.09,ENE,67,3.1,-999.0,49,-99.99,,,0.00,Acu-Link.com,2013-08-14 16:23:00,
2013-08-14 10:38:00,79.9,58.4,30.09,NNE,22,2.7,-999.0,48,-99.99,,,0.00,Acu-Link.com,2013-08-14 16:38:00,
2013-08-14 10:53:00,80.2,58.2,30.08,SE,135,3.1,-999.0,47,-99.99,,,0.00,Acu-Link.com,2013-08-14 16:53:00,
2013-08-14 11:09:00,79.9,57.8,30.08,South,180,2.7,-999.0,47,-99.99,,,0.00,Acu-Link.com,2013-08-14 17:09:00,
2013-08-14 11:24:00,81.3,57.9,30.07,ESE,112,1.6,-999.0,45,-99.99,,,0.00,Acu-Link.com,2013-08-14 17:24:00,
2013-08-14 11:39:00,78.8,59.7,30.07,ESE,112,0.0,-999.0,52,-99.99,,,0.00,Acu-Link.com,2013-08-14 17:39:00,
2013-08-14 11:54:00,80.2,58.2,30.07,NNE,22,2.7,-999.0,47,-99.99,,,0.00,Acu-Link.com,2013-08-14 17:54:00,
2013-08-14 12:09:00,83.1,58.9,30.06,SE,135,5.1,-999.0,44,-99.99,,,0.00,Acu-Link.com,2013-08-14 18:09:00,
2013-08-14 12:25:00,85.5,59.0,30.05,West,270,2.2,-999.0,41,-99.99,,,0.00,Acu-Link.com,2013-08-14 18:25:00,
2013-08-14 12:40:00,86.5,57.9,30.05,SSE,157,6.7,-999.0,38,-99.99,,,0.00,Acu-Link.com,2013-08-14 18:40:00,
2013-08-14 12:55:00,87.4,58.7,30.03,ESE,112,2.7,-999.0,38,-99.99,,,0.00,Acu-Link.com,2013-08-14 18:55:00,
2013-08-14 13:41:00,88.7,56.7,30.01,SSE,157,3.1,-999.0,34,-99.99,,,0.00,Acu-Link.com,2013-08-14 19:41:00,
2013-08-14 13:56:00,89.6,55.8,30.00,SSW,202,2.7,-999.0,32,-99.99,,,0.00,Acu-Link.com,2013-08-14 19:56:00,
2013-08-14 14:11:00,91.0,53.4,29.99,ESE,112,2.2,-999.0,28,-99.99,,,0.00,Acu-Link.com,2013-08-14 20:11:00,
2013-08-14 14:26:00,89.8,53.2,29.98,NE,45,0.0,-999.0,29,-99.99,,,0.00,Acu-Link.com,2013-08-14 20:26:00,
2013-08-14 14:42:00,89.4,52.9,29.98,SE,135,3.1,-999.0,29,-99.99,,,0.00,Acu-Link.com,2013-08-14 20:42:00,
2013-08-14 14:57:00,88.7,54.1,29.97,SE,135,4.3,-999.0,31,-99.99,,,0.00,Acu-Link.com,2013-08-14 20:57:00,
2013-08-14 15:12:00,91.6,53.8,29.96,West,270,2.7,-999.0,28,-99.99,,,0.00,Acu-Link.com,2013-08-14 21:12:00,
2013-08-14 15:27:00,91.4,45.9,29.97,NW,315,8.3,-999.0,21,-99.99,,,0.00,Acu-Link.com,2013-08-14 21:27:00,
2013-08-14 15:42:00,89.2,44.2,29.98,West,270,3.8,-999.0,21,-99.99,,,0.00,Acu-Link.com,2013-08-14 21:42:00,
2013-08-14 15:58:00,88.7,49.4,29.97,NE,45,14.1,-999.0,26,-99.99,,,0.00,Acu-Link.com,2013-08-14 21:58:00,
2013-08-14 16:13:00,80.6,52.6,30.00,South,180,7.4,-999.0,38,-99.99,,,0.00,Acu-Link.com,2013-08-14 22:13:00,
2013-08-14 16:28:00,83.5,52.1,29.99,ESE,112,6.7,-999.0,34,-99.99,,,0.00,Acu-Link.com,2013-08-14 22:28:00,
2013-08-14 16:43:00,85.6,49.7,29.98,NNE,22,5.1,-999.0,29,-99.99,,,0.00,Acu-Link.com,2013-08-14 22:43:00,
2013-08-14 16:59:00,86.9,46.8,29.97,SSE,157,5.1,-999.0,25,-99.99,,,0.00,Acu-Link.com,2013-08-14 22:59:00,
2013-08-14 17:14:00,87.3,44.9,29.97,NE,45,2.7,-999.0,23,-99.99,,,0.00,Acu-Link.com,2013-08-14 23:14:00,
2013-08-14 17:29:00,89.6,45.7,29.96,NNE,22,5.1,-999.0,22,-99.99,,,0.00,Acu-Link.com,2013-08-14 23:29:00,
2013-08-14 17:44:00,96.4,46.0,29.95,East,90,3.1,-999.0,18,-99.99,,,0.00,Acu-Link.com,2013-08-14 23:44:00,
2013-08-14 17:59:00,93.9,43.9,29.94,ENE,67,3.1,-999.0,18,-99.99,,,0.00,Acu-Link.com,2013-08-14 23:59:00,
2013-08-14 18:15:00,93.2,44.8,29.94,SE,135,0.0,-999.0,19,-99.99,,,0.00,Acu-Link.com,2013-08-15 00:15:00,
2013-08-14 18:30:00,90.1,46.1,29.94,SSW,202,5.8,-999.0,22,-99.99,,,0.00,Acu-Link.com,2013-08-15 00:30:00,
2013-08-14 18:45:00,89.8,45.8,29.93,SE,135,3.1,-999.0,22,-99.99,,,0.00,Acu-Link.com,2013-08-15 00:45:00,
2013-08-14 19:00:00,90.5,48.7,29.92,SW,225,1.6,-999.0,24,-99.99,,,0.00,Acu-Link.com,2013-08-15 01:00:00,
2013-08-14 19:15:00,89.8,50.3,29.93,WSW,247,1.1,-999.0,26,-99.99,,,0.00,Acu-Link.com,2013-08-15 01:15:00,
2013-08-14 19:31:00,85.6,49.7,29.93,South,180,2.2,-999.0,29,-99.99,,,0.00,Acu-Link.com,2013-08-15 01:31:00,
2013-08-14 19:46:00,83.8,50.8,29.93,SW,225,1.6,-999.0,32,-99.99,,,0.00,Acu-Link.com,2013-08-15 01:46:00,
2013-08-14 20:01:00,82.4,50.4,29.94,SSW,202,0.0,-999.0,33,-99.99,,,0.00,Acu-Link.com,2013-08-15 02:01:00,
2013-08-14 20:16:00,81.3,50.2,29.94,South,180,0.0,-999.0,34,-99.99,,,0.00,Acu-Link.com,2013-08-15 02:16:00,
2013-08-14 20:31:00,80.4,50.2,29.94,SSW,202,1.6,-999.0,35,-99.99,,,0.00,Acu-Link.com,2013-08-15 02:31:00,
2013-08-14 20:47:00,79.5,50.2,29.95,SSW,202,0.0,-999.0,36,-99.99,,,0.00,Acu-Link.com,2013-08-15 02:47:00,
2013-08-14 21:02:00,78.4,50.0,29.95,SW,225,0.0,-999.0,37,-99.99,,,0.00,Acu-Link.com,2013-08-15 03:02:00,
2013-08-14 21:17:00,77.9,50.2,29.96,ESE,112,0.0,-999.0,38,-99.99,,,0.00,Acu-Link.com,2013-08-15 03:17:00,
2013-08-14 21:32:00,75.7,52.9,29.98,ESE,112,1.1,-999.0,45,-99.99,,,0.00,Acu-Link.com,2013-08-15 03:32:00,
2013-08-14 21:47:00,75.4,52.5,29.99,SSE,157,0.0,-999.0,45,-99.99,,,0.00,Acu-Link.com,2013-08-15 03:47:00,
2013-08-14 22:03:00,74.7,51.3,29.98,South,180,1.1,-999.0,44,-99.99,,,0.00,Acu-Link.com,2013-08-15 04:03:00,
2013-08-14 22:18:00,74.7,51.9,30.00,SSW,202,1.1,-999.0,45,-99.99,,,0.00,Acu-Link.com,2013-08-15 04:18:00,
2013-08-14 22:33:00,73.9,52.4,30.00,SSW,202,2.2,-999.0,47,-99.99,,,0.00,Acu-Link.com,2013-08-15 04:33:00,
2013-08-14 23:20:00,73.9,52.4,30.00,North,0,1.1,-999.0,47,-99.99,,,0.00,Acu-Link.com,2013-08-15 05:20:00,
2013-08-14 23:35:00,71.4,52.3,30.02,SW,225,0.0,-999.0,51,-99.99,,,0.00,Acu-Link.com,2013-08-15 05:35:00,
2013-08-14 23:50:00,71.4,51.8,30.02,SSW,202,0.0,-999.0,50,-99.99,,,0.00,Acu-Link.com,2013-08-15 05:50:00,